sensor_id;sensor_type;location;lat;lon;timestamp;P1;durP1;ratioP1;P2;durP2;ratioP2
12745;SDS011;6437;53.686;10.030;2023-03-02T00:01:29;13.15;;;4.70;;
12745;SDS011;6437;53.686;10.030;2023-03-02T00:04:36;7.15;;;3.35;;
12745;SDS011;6437;53.686;10.030;2023-03-02T00:07:41;6.80;;;3.92;;
12745;SDS011;6437;53.686;10.030;2023-03-02T00:10:43;7.30;;;3.33;;
12745;SDS011;6437;53.686;10.030;2023-03-02T00:13:45;10.20;;;3.28;;
12745;SDS011;6437;53.686;10.030;2023-03-02T00:16:46;9.30;;;3.90;;
12745;SDS011;6437;53.686;10.030;2023-03-02T00:19:50;7.07;;;3.35;;
12745;SDS011;6437;53.686;10.030;2023-03-02T00:22:51;7.72;;;4.13;;
12745;SDS011;6437;53.686;10.030;2023-03-02T00:25:53;7.18;;;3.72;;
12745;SDS011;6437;53.686;10.030;2023-03-02T00:28:55;11.43;;;4.35;;
12745;SDS011;6437;53.686;10.030;2023-03-02T00:31:56;7.68;;;4.25;;
12745;SDS011;6437;53.686;10.030;2023-03-02T00:35:00;10.40;;;4.53;;
12745;SDS011;6437;53.686;10.030;2023-03-02T00:38:01;7.07;;;4.10;;
12745;SDS011;6437;53.686;10.030;2023-03-02T00:41:03;7.65;;;3.80;;
12745;SDS011;6437;53.686;10.030;2023-03-02T00:44:05;9.40;;;4.05;;
12745;SDS011;6437;53.686;10.030;2023-03-02T00:47:07;8.52;;;3.78;;
12745;SDS011;6437;53.686;10.030;2023-03-02T00:50:10;6.80;;;4.13;;
12745;SDS011;6437;53.686;10.030;2023-03-02T00:53:12;13.45;;;4.97;;
12745;SDS011;6437;53.686;10.030;2023-03-02T00:56:14;10.27;;;4.68;;
12745;SDS011;6437;53.686;10.030;2023-03-02T00:59:15;7.82;;;3.92;;
12745;SDS011;6437;53.686;10.030;2023-03-02T01:02:26;8.40;;;4.18;;
12745;SDS011;6437;53.686;10.030;2023-03-02T01:05:29;10.50;;;5.60;;
12745;SDS011;6437;53.686;10.030;2023-03-02T01:08:31;9.95;;;5.57;;
12745;SDS011;6437;53.686;10.030;2023-03-02T01:11:32;9.25;;;4.78;;
12745;SDS011;6437;53.686;10.030;2023-03-02T01:14:34;11.73;;;4.75;;
12745;SDS011;6437;53.686;10.030;2023-03-02T01:17:36;9.88;;;5.10;;
12745;SDS011;6437;53.686;10.030;2023-03-02T01:20:41;13.68;;;6.35;;
12745;SDS011;6437;53.686;10.030;2023-03-02T01:23:43;12.48;;;4.45;;
12745;SDS011;6437;53.686;10.030;2023-03-02T01:26:45;7.72;;;4.93;;
12745;SDS011;6437;53.686;10.030;2023-03-02T01:29:46;7.45;;;4.35;;
12745;SDS011;6437;53.686;10.030;2023-03-02T01:32:49;7.68;;;4.80;;
12745;SDS011;6437;53.686;10.030;2023-03-02T01:35:52;11.50;;;5.10;;
12745;SDS011;6437;53.686;10.030;2023-03-02T01:38:54;10.25;;;6.07;;
12745;SDS011;6437;53.686;10.030;2023-03-02T01:41:56;12.60;;;5.50;;
12745;SDS011;6437;53.686;10.030;2023-03-02T01:44:58;11.60;;;4.85;;
12745;SDS011;6437;53.686;10.030;2023-03-02T01:48:00;10.13;;;6.63;;
12745;SDS011;6437;53.686;10.030;2023-03-02T01:51:04;8.90;;;4.88;;
12745;SDS011;6437;53.686;10.030;2023-03-02T01:54:08;9.50;;;6.15;;
12745;SDS011;6437;53.686;10.030;2023-03-02T01:57:18;8.10;;;4.82;;
12745;SDS011;6437;53.686;10.030;2023-03-02T02:00:25;9.23;;;5.28;;
12745;SDS011;6437;53.686;10.030;2023-03-02T02:03:29;9.23;;;5.50;;
12745;SDS011;6437;53.686;10.030;2023-03-02T02:06:33;8.32;;;5.50;;
12745;SDS011;6437;53.686;10.030;2023-03-02T02:09:39;9.13;;;6.22;;
12745;SDS011;6437;53.686;10.030;2023-03-02T02:12:44;13.60;;;6.53;;
12745;SDS011;6437;53.686;10.030;2023-03-02T02:15:46;8.80;;;5.05;;
12745;SDS011;6437;53.686;10.030;2023-03-02T02:18:48;16.13;;;6.93;;
12745;SDS011;6437;53.686;10.030;2023-03-02T02:21:51;10.60;;;6.93;;
12745;SDS011;6437;53.686;10.030;2023-03-02T02:24:54;13.90;;;6.43;;
12745;SDS011;6437;53.686;10.030;2023-03-02T02:28:01;18.17;;;6.38;;
12745;SDS011;6437;53.686;10.030;2023-03-02T02:31:08;10.57;;;6.38;;
12745;SDS011;6437;53.686;10.030;2023-03-02T02:34:15;12.63;;;6.38;;
12745;SDS011;6437;53.686;10.030;2023-03-02T02:37:21;14.07;;;7.03;;
12745;SDS011;6437;53.686;10.030;2023-03-02T02:40:37;10.55;;;5.65;;
12745;SDS011;6437;53.686;10.030;2023-03-02T02:43:43;11.48;;;6.28;;
12745;SDS011;6437;53.686;10.030;2023-03-02T02:46:45;9.40;;;5.35;;
12745;SDS011;6437;53.686;10.030;2023-03-02T02:49:47;11.68;;;5.28;;
12745;SDS011;6437;53.686;10.030;2023-03-02T02:52:52;11.55;;;6.53;;
12745;SDS011;6437;53.686;10.030;2023-03-02T02:55:59;15.75;;;6.50;;
12745;SDS011;6437;53.686;10.030;2023-03-02T02:59:04;15.40;;;6.50;;
12745;SDS011;6437;53.686;10.030;2023-03-02T03:02:14;8.15;;;4.80;;
12745;SDS011;6437;53.686;10.030;2023-03-02T03:05:19;11.40;;;6.78;;
12745;SDS011;6437;53.686;10.030;2023-03-02T03:12:00;11.07;;;6.88;;
12745;SDS011;6437;53.686;10.030;2023-03-02T03:15:08;17.55;;;6.75;;
12745;SDS011;6437;53.686;10.030;2023-03-02T03:18:11;16.50;;;7.65;;
12745;SDS011;6437;53.686;10.030;2023-03-02T03:21:13;13.32;;;5.97;;
12745;SDS011;6437;53.686;10.030;2023-03-02T03:24:17;17.55;;;6.28;;
12745;SDS011;6437;53.686;10.030;2023-03-02T03:27:19;11.75;;;7.18;;
12745;SDS011;6437;53.686;10.030;2023-03-02T03:30:22;13.52;;;6.32;;
12745;SDS011;6437;53.686;10.030;2023-03-02T03:33:24;11.43;;;5.85;;
12745;SDS011;6437;53.686;10.030;2023-03-02T03:36:26;10.57;;;6.40;;
12745;SDS011;6437;53.686;10.030;2023-03-02T03:39:29;13.95;;;6.57;;
12745;SDS011;6437;53.686;10.030;2023-03-02T03:42:31;11.98;;;7.20;;
12745;SDS011;6437;53.686;10.030;2023-03-02T03:45:34;10.57;;;5.57;;
12745;SDS011;6437;53.686;10.030;2023-03-02T03:48:36;9.90;;;5.70;;
12745;SDS011;6437;53.686;10.030;2023-03-02T03:51:38;8.07;;;4.95;;
12745;SDS011;6437;53.686;10.030;2023-03-02T03:54:40;7.13;;;3.33;;
12745;SDS011;6437;53.686;10.030;2023-03-02T03:57:42;7.32;;;3.65;;
12745;SDS011;6437;53.686;10.030;2023-03-02T04:00:45;8.57;;;4.43;;
12745;SDS011;6437;53.686;10.030;2023-03-02T04:03:47;7.68;;;4.10;;
12745;SDS011;6437;53.686;10.030;2023-03-02T04:06:49;9.00;;;4.13;;
12745;SDS011;6437;53.686;10.030;2023-03-02T04:09:51;6.40;;;3.55;;
12745;SDS011;6437;53.686;10.030;2023-03-02T04:13:02;9.05;;;5.07;;
12745;SDS011;6437;53.686;10.030;2023-03-02T04:16:06;15.30;;;6.37;;
12745;SDS011;6437;53.686;10.030;2023-03-02T04:19:08;7.82;;;4.47;;
12745;SDS011;6437;53.686;10.030;2023-03-02T04:22:10;9.18;;;5.38;;
12745;SDS011;6437;53.686;10.030;2023-03-02T04:25:12;10.13;;;5.53;;
12745;SDS011;6437;53.686;10.030;2023-03-02T04:28:18;11.32;;;5.13;;
12745;SDS011;6437;53.686;10.030;2023-03-02T04:31:22;9.68;;;4.72;;
12745;SDS011;6437;53.686;10.030;2023-03-02T04:34:23;11.20;;;5.65;;
12745;SDS011;6437;53.686;10.030;2023-03-02T04:37:25;7.38;;;4.05;;
12745;SDS011;6437;53.686;10.030;2023-03-02T04:40:27;9.93;;;5.57;;
12745;SDS011;6437;53.686;10.030;2023-03-02T04:43:29;14.38;;;5.80;;
12745;SDS011;6437;53.686;10.030;2023-03-02T04:46:32;15.13;;;6.00;;
12745;SDS011;6437;53.686;10.030;2023-03-02T04:49:34;12.63;;;6.50;;
12745;SDS011;6437;53.686;10.030;2023-03-02T04:52:36;12.70;;;7.70;;
12745;SDS011;6437;53.686;10.030;2023-03-02T04:55:38;11.45;;;6.35;;
12745;SDS011;6437;53.686;10.030;2023-03-02T04:58:40;10.10;;;6.32;;
12745;SDS011;6437;53.686;10.030;2023-03-02T05:01:43;20.90;;;7.55;;
12745;SDS011;6437;53.686;10.030;2023-03-02T05:04:45;13.38;;;6.97;;
12745;SDS011;6437;53.686;10.030;2023-03-02T05:07:47;28.85;;;16.75;;
12745;SDS011;6437;53.686;10.030;2023-03-02T05:10:49;27.92;;;13.50;;
12745;SDS011;6437;53.686;10.030;2023-03-02T05:13:51;25.92;;;7.50;;
12745;SDS011;6437;53.686;10.030;2023-03-02T05:16:57;14.75;;;6.47;;
12745;SDS011;6437;53.686;10.030;2023-03-02T05:19:59;14.18;;;8.68;;
12745;SDS011;6437;53.686;10.030;2023-03-02T05:23:02;20.80;;;9.43;;
12745;SDS011;6437;53.686;10.030;2023-03-02T05:26:05;12.68;;;8.48;;
12745;SDS011;6437;53.686;10.030;2023-03-02T05:29:07;44.65;;;9.05;;
12745;SDS011;6437;53.686;10.030;2023-03-02T05:32:10;20.27;;;9.27;;
12745;SDS011;6437;53.686;10.030;2023-03-02T05:35:13;14.63;;;8.45;;
12745;SDS011;6437;53.686;10.030;2023-03-02T05:38:15;15.23;;;9.32;;
12745;SDS011;6437;53.686;10.030;2023-03-02T05:41:17;30.95;;;9.43;;
12745;SDS011;6437;53.686;10.030;2023-03-02T05:44:19;35.67;;;9.63;;
12745;SDS011;6437;53.686;10.030;2023-03-02T05:47:22;44.95;;;11.60;;
12745;SDS011;6437;53.686;10.030;2023-03-02T05:50:24;54.70;;;12.68;;
12745;SDS011;6437;53.686;10.030;2023-03-02T05:53:25;43.95;;;10.43;;
12745;SDS011;6437;53.686;10.030;2023-03-02T05:56:27;49.10;;;10.82;;
12745;SDS011;6437;53.686;10.030;2023-03-02T05:59:29;29.23;;;10.93;;
12745;SDS011;6437;53.686;10.030;2023-03-02T06:02:32;21.73;;;10.65;;
12745;SDS011;6437;53.686;10.030;2023-03-02T06:05:34;21.00;;;10.38;;
12745;SDS011;6437;53.686;10.030;2023-03-02T06:08:36;27.30;;;10.85;;
12745;SDS011;6437;53.686;10.030;2023-03-02T06:11:39;25.67;;;10.85;;
12745;SDS011;6437;53.686;10.030;2023-03-02T06:14:41;25.25;;;10.05;;
12745;SDS011;6437;53.686;10.030;2023-03-02T06:17:45;17.63;;;9.00;;
12745;SDS011;6437;53.686;10.030;2023-03-02T06:20:48;24.38;;;10.35;;
12745;SDS011;6437;53.686;10.030;2023-03-02T06:23:50;32.40;;;11.15;;
12745;SDS011;6437;53.686;10.030;2023-03-02T06:26:52;29.98;;;11.32;;
12745;SDS011;6437;53.686;10.030;2023-03-02T06:29:54;32.88;;;9.18;;
12745;SDS011;6437;53.686;10.030;2023-03-02T06:32:57;25.05;;;9.55;;
12745;SDS011;6437;53.686;10.030;2023-03-02T06:35:59;32.72;;;8.82;;
12745;SDS011;6437;53.686;10.030;2023-03-02T06:39:01;24.17;;;10.18;;
12745;SDS011;6437;53.686;10.030;2023-03-02T06:42:02;21.17;;;10.10;;
12745;SDS011;6437;53.686;10.030;2023-03-02T06:45:05;21.10;;;9.80;;
12745;SDS011;6437;53.686;10.030;2023-03-02T06:51:11;20.90;;;10.13;;
12745;SDS011;6437;53.686;10.030;2023-03-02T06:54:12;24.95;;;10.13;;
12745;SDS011;6437;53.686;10.030;2023-03-02T06:57:14;28.20;;;10.82;;
12745;SDS011;6437;53.686;10.030;2023-03-02T07:00:16;22.42;;;9.43;;
12745;SDS011;6437;53.686;10.030;2023-03-02T07:03:25;21.83;;;9.95;;
12745;SDS011;6437;53.686;10.030;2023-03-02T07:06:27;25.33;;;10.65;;
12745;SDS011;6437;53.686;10.030;2023-03-02T07:09:29;37.88;;;10.75;;
12745;SDS011;6437;53.686;10.030;2023-03-02T07:12:33;45.05;;;10.82;;
12745;SDS011;6437;53.686;10.030;2023-03-02T07:15:37;22.90;;;10.40;;
12745;SDS011;6437;53.686;10.030;2023-03-02T07:18:40;26.75;;;10.52;;
12745;SDS011;6437;53.686;10.030;2023-03-02T07:21:42;25.58;;;10.57;;
12745;SDS011;6437;53.686;10.030;2023-03-02T07:24:44;21.80;;;9.18;;
12745;SDS011;6437;53.686;10.030;2023-03-02T07:27:46;20.27;;;9.15;;
12745;SDS011;6437;53.686;10.030;2023-03-02T07:30:47;13.98;;;7.85;;
12745;SDS011;6437;53.686;10.030;2023-03-02T07:33:51;19.92;;;8.65;;
12745;SDS011;6437;53.686;10.030;2023-03-02T07:36:53;21.70;;;10.13;;
12745;SDS011;6437;53.686;10.030;2023-03-02T07:39:54;27.83;;;10.52;;
12745;SDS011;6437;53.686;10.030;2023-03-02T07:42:56;17.88;;;8.80;;
12745;SDS011;6437;53.686;10.030;2023-03-02T07:45:58;16.85;;;8.43;;
12745;SDS011;6437;53.686;10.030;2023-03-02T07:49:01;16.55;;;7.75;;
12745;SDS011;6437;53.686;10.030;2023-03-02T07:52:03;14.82;;;7.85;;
12745;SDS011;6437;53.686;10.030;2023-03-02T07:55:06;16.63;;;7.80;;
12745;SDS011;6437;53.686;10.030;2023-03-02T07:58:08;12.80;;;6.97;;
12745;SDS011;6437;53.686;10.030;2023-03-02T08:01:10;13.07;;;7.30;;
12745;SDS011;6437;53.686;10.030;2023-03-02T08:04:13;16.48;;;8.32;;
12745;SDS011;6437;53.686;10.030;2023-03-02T08:07:15;19.73;;;8.20;;
12745;SDS011;6437;53.686;10.030;2023-03-02T08:10:17;15.10;;;8.13;;
12745;SDS011;6437;53.686;10.030;2023-03-02T08:13:19;16.08;;;8.02;;
12745;SDS011;6437;53.686;10.030;2023-03-02T08:16:20;14.88;;;9.13;;
12745;SDS011;6437;53.686;10.030;2023-03-02T08:19:25;16.00;;;7.50;;
12745;SDS011;6437;53.686;10.030;2023-03-02T08:22:27;22.80;;;7.55;;
12745;SDS011;6437;53.686;10.030;2023-03-02T08:25:29;17.50;;;8.50;;
12745;SDS011;6437;53.686;10.030;2023-03-02T08:28:31;19.67;;;9.10;;
12745;SDS011;6437;53.686;10.030;2023-03-02T08:31:34;13.95;;;8.57;;
12745;SDS011;6437;53.686;10.030;2023-03-02T08:34:37;15.18;;;8.05;;
12745;SDS011;6437;53.686;10.030;2023-03-02T08:37:38;18.50;;;9.10;;
12745;SDS011;6437;53.686;10.030;2023-03-02T08:40:40;17.85;;;8.93;;
12745;SDS011;6437;53.686;10.030;2023-03-02T08:43:42;19.38;;;10.52;;
12745;SDS011;6437;53.686;10.030;2023-03-02T08:46:43;17.02;;;9.80;;
12745;SDS011;6437;53.686;10.030;2023-03-02T08:49:46;16.15;;;7.70;;
12745;SDS011;6437;53.686;10.030;2023-03-02T08:52:49;16.30;;;8.25;;
12745;SDS011;6437;53.686;10.030;2023-03-02T08:55:51;20.00;;;9.10;;
12745;SDS011;6437;53.686;10.030;2023-03-02T08:58:53;17.75;;;9.20;;
12745;SDS011;6437;53.686;10.030;2023-03-02T09:01:58;19.70;;;9.68;;
12745;SDS011;6437;53.686;10.030;2023-03-02T09:05:01;19.15;;;7.65;;
12745;SDS011;6437;53.686;10.030;2023-03-02T09:08:04;18.02;;;8.43;;
12745;SDS011;6437;53.686;10.030;2023-03-02T09:11:06;17.23;;;7.50;;
12745;SDS011;6437;53.686;10.030;2023-03-02T09:14:08;15.13;;;8.38;;
12745;SDS011;6437;53.686;10.030;2023-03-02T09:17:10;17.45;;;8.55;;
12745;SDS011;6437;53.686;10.030;2023-03-02T09:20:16;11.07;;;5.93;;
12745;SDS011;6437;53.686;10.030;2023-03-02T09:23:17;12.85;;;6.35;;
12745;SDS011;6437;53.686;10.030;2023-03-02T09:26:20;12.90;;;7.47;;
12745;SDS011;6437;53.686;10.030;2023-03-02T09:29:22;12.57;;;7.43;;
12745;SDS011;6437;53.686;10.030;2023-03-02T09:32:24;16.77;;;8.55;;
12745;SDS011;6437;53.686;10.030;2023-03-02T09:35:27;15.52;;;7.88;;
12745;SDS011;6437;53.686;10.030;2023-03-02T09:38:29;16.85;;;7.70;;
12745;SDS011;6437;53.686;10.030;2023-03-02T09:41:37;17.48;;;8.05;;
12745;SDS011;6437;53.686;10.030;2023-03-02T09:45:09;14.40;;;7.95;;
12745;SDS011;6437;53.686;10.030;2023-03-02T09:48:20;14.02;;;7.72;;
12745;SDS011;6437;53.686;10.030;2023-03-02T09:51:32;17.88;;;8.13;;
12745;SDS011;6437;53.686;10.030;2023-03-02T09:54:38;22.20;;;9.25;;
12745;SDS011;6437;53.686;10.030;2023-03-02T09:57:40;21.88;;;7.18;;
12745;SDS011;6437;53.686;10.030;2023-03-02T10:00:45;18.02;;;10.43;;
12745;SDS011;6437;53.686;10.030;2023-03-02T10:03:49;15.80;;;8.60;;
12745;SDS011;6437;53.686;10.030;2023-03-02T10:06:57;18.38;;;9.20;;
12745;SDS011;6437;53.686;10.030;2023-03-02T10:10:12;15.18;;;8.40;;
12745;SDS011;6437;53.686;10.030;2023-03-02T10:13:24;16.17;;;9.02;;
12745;SDS011;6437;53.686;10.030;2023-03-02T10:16:29;17.02;;;8.20;;
12745;SDS011;6437;53.686;10.030;2023-03-02T10:19:38;16.05;;;8.90;;
12745;SDS011;6437;53.686;10.030;2023-03-02T10:22:46;17.85;;;7.93;;
12745;SDS011;6437;53.686;10.030;2023-03-02T10:25:53;15.00;;;8.20;;
12745;SDS011;6437;53.686;10.030;2023-03-02T10:29:04;15.52;;;8.38;;
12745;SDS011;6437;53.686;10.030;2023-03-02T10:32:17;11.45;;;5.72;;
12745;SDS011;6437;53.686;10.030;2023-03-02T10:35:21;16.15;;;7.55;;
12745;SDS011;6437;53.686;10.030;2023-03-02T10:38:26;22.00;;;8.25;;
12745;SDS011;6437;53.686;10.030;2023-03-02T10:41:29;12.63;;;5.97;;
12745;SDS011;6437;53.686;10.030;2023-03-02T10:44:34;17.33;;;7.82;;
12745;SDS011;6437;53.686;10.030;2023-03-02T10:47:39;17.52;;;8.55;;
12745;SDS011;6437;53.686;10.030;2023-03-02T10:50:42;21.30;;;8.38;;
12745;SDS011;6437;53.686;10.030;2023-03-02T10:53:46;18.55;;;9.95;;
12745;SDS011;6437;53.686;10.030;2023-03-02T10:56:48;15.25;;;7.20;;
12745;SDS011;6437;53.686;10.030;2023-03-02T10:59:56;15.73;;;7.68;;
12745;SDS011;6437;53.686;10.030;2023-03-02T11:03:01;12.85;;;6.40;;
12745;SDS011;6437;53.686;10.030;2023-03-02T11:06:10;14.68;;;6.38;;
12745;SDS011;6437;53.686;10.030;2023-03-02T11:09:19;15.18;;;5.72;;
12745;SDS011;6437;53.686;10.030;2023-03-02T11:12:20;12.18;;;5.90;;
12745;SDS011;6437;53.686;10.030;2023-03-02T11:15:24;10.20;;;5.20;;
12745;SDS011;6437;53.686;10.030;2023-03-02T11:18:30;21.52;;;6.63;;
12745;SDS011;6437;53.686;10.030;2023-03-02T11:21:37;13.60;;;5.95;;
12745;SDS011;6437;53.686;10.030;2023-03-02T11:24:46;17.35;;;6.63;;
12745;SDS011;6437;53.686;10.030;2023-03-02T11:27:55;13.40;;;5.68;;
12745;SDS011;6437;53.686;10.030;2023-03-02T11:31:03;18.48;;;7.53;;
12745;SDS011;6437;53.686;10.030;2023-03-02T11:34:18;14.07;;;5.60;;
12745;SDS011;6437;53.686;10.030;2023-03-02T11:37:34;16.80;;;6.45;;
12745;SDS011;6437;53.686;10.030;2023-03-02T11:40:42;18.33;;;6.53;;
12745;SDS011;6437;53.686;10.030;2023-03-02T11:43:47;13.30;;;6.50;;
12745;SDS011;6437;53.686;10.030;2023-03-02T11:46:50;17.38;;;5.88;;
12745;SDS011;6437;53.686;10.030;2023-03-02T11:49:56;15.85;;;5.82;;
12745;SDS011;6437;53.686;10.030;2023-03-02T11:53:02;11.98;;;5.25;;
12745;SDS011;6437;53.686;10.030;2023-03-02T11:56:08;14.48;;;5.53;;
12745;SDS011;6437;53.686;10.030;2023-03-02T11:59:11;11.55;;;5.80;;
12745;SDS011;6437;53.686;10.030;2023-03-02T12:02:17;10.35;;;4.95;;
12745;SDS011;6437;53.686;10.030;2023-03-02T12:05:22;10.70;;;3.92;;
12745;SDS011;6437;53.686;10.030;2023-03-02T12:08:29;9.45;;;4.00;;
12745;SDS011;6437;53.686;10.030;2023-03-02T12:11:36;10.05;;;3.85;;
12745;SDS011;6437;53.686;10.030;2023-03-02T12:14:40;8.85;;;3.70;;
12745;SDS011;6437;53.686;10.030;2023-03-02T12:17:42;9.90;;;4.67;;
12745;SDS011;6437;53.686;10.030;2023-03-02T12:20:44;14.27;;;5.45;;
12745;SDS011;6437;53.686;10.030;2023-03-02T12:23:53;11.63;;;5.35;;
12745;SDS011;6437;53.686;10.030;2023-03-02T12:27:02;13.07;;;5.60;;
12745;SDS011;6437;53.686;10.030;2023-03-02T12:30:18;12.45;;;5.75;;
12745;SDS011;6437;53.686;10.030;2023-03-02T12:33:25;12.77;;;6.93;;
12745;SDS011;6437;53.686;10.030;2023-03-02T12:36:28;17.52;;;6.80;;
12745;SDS011;6437;53.686;10.030;2023-03-02T12:39:43;17.27;;;6.47;;
12745;SDS011;6437;53.686;10.030;2023-03-02T12:43:15;21.23;;;7.78;;
12745;SDS011;6437;53.686;10.030;2023-03-02T12:46:25;18.42;;;8.20;;
12745;SDS011;6437;53.686;10.030;2023-03-02T12:49:32;18.67;;;7.50;;
12745;SDS011;6437;53.686;10.030;2023-03-02T12:52:44;22.52;;;7.13;;
12745;SDS011;6437;53.686;10.030;2023-03-02T12:55:57;18.27;;;8.17;;
12745;SDS011;6437;53.686;10.030;2023-03-02T12:59:00;22.08;;;8.07;;
12745;SDS011;6437;53.686;10.030;2023-03-02T13:02:03;16.17;;;8.23;;
12745;SDS011;6437;53.686;10.030;2023-03-02T13:05:15;19.23;;;9.32;;
12745;SDS011;6437;53.686;10.030;2023-03-02T13:08:19;16.98;;;7.78;;
12745;SDS011;6437;53.686;10.030;2023-03-02T13:11:25;17.17;;;7.85;;
12745;SDS011;6437;53.686;10.030;2023-03-02T13:14:31;22.10;;;10.30;;
12745;SDS011;6437;53.686;10.030;2023-03-02T13:17:33;22.30;;;12.52;;
12745;SDS011;6437;53.686;10.030;2023-03-02T13:20:35;22.50;;;10.15;;
12745;SDS011;6437;53.686;10.030;2023-03-02T13:23:43;28.05;;;14.07;;
12745;SDS011;6437;53.686;10.030;2023-03-02T13:26:52;23.88;;;10.70;;
12745;SDS011;6437;53.686;10.030;2023-03-02T13:30:06;28.40;;;11.75;;
12745;SDS011;6437;53.686;10.030;2023-03-02T13:33:16;27.98;;;12.85;;
12745;SDS011;6437;53.686;10.030;2023-03-02T13:36:22;27.77;;;14.45;;
12745;SDS011;6437;53.686;10.030;2023-03-02T13:39:28;22.85;;;11.13;;
12745;SDS011;6437;53.686;10.030;2023-03-02T13:42:33;25.70;;;11.38;;
12745;SDS011;6437;53.686;10.030;2023-03-02T13:45:38;24.85;;;10.50;;
12745;SDS011;6437;53.686;10.030;2023-03-02T13:48:40;17.05;;;8.93;;
12745;SDS011;6437;53.686;10.030;2023-03-02T13:51:43;18.38;;;9.40;;
12745;SDS011;6437;53.686;10.030;2023-03-02T13:54:47;14.70;;;6.97;;
12745;SDS011;6437;53.686;10.030;2023-03-02T13:57:49;20.52;;;8.63;;
12745;SDS011;6437;53.686;10.030;2023-03-02T14:00:54;15.95;;;8.15;;
12745;SDS011;6437;53.686;10.030;2023-03-02T14:03:56;13.23;;;6.38;;
12745;SDS011;6437;53.686;10.030;2023-03-02T14:07:00;19.02;;;7.65;;
12745;SDS011;6437;53.686;10.030;2023-03-02T14:10:02;15.13;;;5.55;;
12745;SDS011;6437;53.686;10.030;2023-03-02T14:13:05;14.75;;;7.00;;
12745;SDS011;6437;53.686;10.030;2023-03-02T14:16:12;13.43;;;7.07;;
12745;SDS011;6437;53.686;10.030;2023-03-02T14:19:16;16.90;;;6.15;;
12745;SDS011;6437;53.686;10.030;2023-03-02T14:22:19;12.38;;;6.38;;
12745;SDS011;6437;53.686;10.030;2023-03-02T14:25:22;20.70;;;7.35;;
12745;SDS011;6437;53.686;10.030;2023-03-02T14:28:25;10.95;;;5.15;;
12745;SDS011;6437;53.686;10.030;2023-03-02T14:31:30;11.85;;;6.03;;
12745;SDS011;6437;53.686;10.030;2023-03-02T14:34:32;17.20;;;8.00;;
12745;SDS011;6437;53.686;10.030;2023-03-02T14:37:35;12.00;;;5.97;;
12745;SDS011;6437;53.686;10.030;2023-03-02T14:40:38;17.92;;;8.63;;
12745;SDS011;6437;53.686;10.030;2023-03-02T14:43:40;13.38;;;6.68;;
12745;SDS011;6437;53.686;10.030;2023-03-02T14:46:43;17.55;;;7.63;;
12745;SDS011;6437;53.686;10.030;2023-03-02T14:49:44;15.65;;;6.82;;
12745;SDS011;6437;53.686;10.030;2023-03-02T14:55:51;15.20;;;7.15;;
12745;SDS011;6437;53.686;10.030;2023-03-02T14:58:53;12.18;;;5.95;;
12745;SDS011;6437;53.686;10.030;2023-03-02T15:01:57;16.45;;;5.43;;
12745;SDS011;6437;53.686;10.030;2023-03-02T15:04:59;12.18;;;5.93;;
12745;SDS011;6437;53.686;10.030;2023-03-02T15:08:01;12.95;;;5.47;;
12745;SDS011;6437;53.686;10.030;2023-03-02T15:11:02;17.05;;;5.50;;
12745;SDS011;6437;53.686;10.030;2023-03-02T15:14:04;11.32;;;4.15;;
12745;SDS011;6437;53.686;10.030;2023-03-02T15:17:08;11.18;;;4.85;;
12745;SDS011;6437;53.686;10.030;2023-03-02T15:20:12;12.68;;;5.38;;
12745;SDS011;6437;53.686;10.030;2023-03-02T15:23:15;21.90;;;6.07;;
12745;SDS011;6437;53.686;10.030;2023-03-02T15:26:16;15.18;;;6.43;;
12745;SDS011;6437;53.686;10.030;2023-03-02T15:29:19;13.23;;;5.97;;
12745;SDS011;6437;53.686;10.030;2023-03-02T15:32:22;20.67;;;5.80;;
12745;SDS011;6437;53.686;10.030;2023-03-02T15:35:24;14.48;;;6.00;;
12745;SDS011;6437;53.686;10.030;2023-03-02T15:38:27;11.80;;;5.00;;
12745;SDS011;6437;53.686;10.030;2023-03-02T15:41:29;17.60;;;6.53;;
12745;SDS011;6437;53.686;10.030;2023-03-02T15:44:31;18.30;;;7.00;;
12745;SDS011;6437;53.686;10.030;2023-03-02T15:47:34;11.43;;;5.43;;
12745;SDS011;6437;53.686;10.030;2023-03-02T15:50:37;15.52;;;6.57;;
12745;SDS011;6437;53.686;10.030;2023-03-02T15:53:39;15.48;;;6.95;;
12745;SDS011;6437;53.686;10.030;2023-03-02T15:56:41;17.45;;;7.15;;
12745;SDS011;6437;53.686;10.030;2023-03-02T15:59:44;14.27;;;6.38;;
12745;SDS011;6437;53.686;10.030;2023-03-02T16:02:48;22.17;;;6.70;;
12745;SDS011;6437;53.686;10.030;2023-03-02T16:05:50;17.65;;;7.70;;
12745;SDS011;6437;53.686;10.030;2023-03-02T16:08:52;15.95;;;7.25;;
12745;SDS011;6437;53.686;10.030;2023-03-02T16:11:54;17.40;;;8.20;;
12745;SDS011;6437;53.686;10.030;2023-03-02T16:14:56;19.48;;;8.02;;
12745;SDS011;6437;53.686;10.030;2023-03-02T16:17:59;20.08;;;8.00;;
12745;SDS011;6437;53.686;10.030;2023-03-02T16:21:01;17.02;;;8.43;;
12745;SDS011;6437;53.686;10.030;2023-03-02T16:24:02;21.55;;;9.93;;
12745;SDS011;6437;53.686;10.030;2023-03-02T16:27:05;18.98;;;8.93;;
12745;SDS011;6437;53.686;10.030;2023-03-02T16:30:07;19.58;;;9.02;;
12745;SDS011;6437;53.686;10.030;2023-03-02T16:33:12;20.58;;;9.60;;
12745;SDS011;6437;53.686;10.030;2023-03-02T16:36:15;22.23;;;9.80;;
12745;SDS011;6437;53.686;10.030;2023-03-02T16:39:20;25.10;;;10.07;;
12745;SDS011;6437;53.686;10.030;2023-03-02T16:42:21;18.77;;;9.27;;
12745;SDS011;6437;53.686;10.030;2023-03-02T16:45:23;25.40;;;11.38;;
12745;SDS011;6437;53.686;10.030;2023-03-02T16:48:27;24.10;;;9.85;;
12745;SDS011;6437;53.686;10.030;2023-03-02T16:51:28;22.73;;;11.07;;
12745;SDS011;6437;53.686;10.030;2023-03-02T16:54:30;20.77;;;10.05;;
12745;SDS011;6437;53.686;10.030;2023-03-02T16:57:32;25.50;;;12.43;;
12745;SDS011;6437;53.686;10.030;2023-03-02T17:00:34;28.85;;;12.55;;
12745;SDS011;6437;53.686;10.030;2023-03-02T17:03:37;20.90;;;10.63;;
12745;SDS011;6437;53.686;10.030;2023-03-02T17:06:42;25.20;;;11.20;;
12745;SDS011;6437;53.686;10.030;2023-03-02T17:09:44;21.63;;;11.32;;
12745;SDS011;6437;53.686;10.030;2023-03-02T17:12:46;23.25;;;10.60;;
12745;SDS011;6437;53.686;10.030;2023-03-02T17:15:48;23.35;;;10.15;;
12745;SDS011;6437;53.686;10.030;2023-03-02T17:18:51;18.25;;;9.98;;
12745;SDS011;6437;53.686;10.030;2023-03-02T17:21:54;21.92;;;9.38;;
12745;SDS011;6437;53.686;10.030;2023-03-02T17:24:58;21.98;;;10.95;;
12745;SDS011;6437;53.686;10.030;2023-03-02T17:27:59;21.13;;;10.82;;
12745;SDS011;6437;53.686;10.030;2023-03-02T17:31:01;21.45;;;10.60;;
12745;SDS011;6437;53.686;10.030;2023-03-02T17:34:04;22.45;;;11.02;;
12745;SDS011;6437;53.686;10.030;2023-03-02T17:37:06;23.30;;;10.30;;
12745;SDS011;6437;53.686;10.030;2023-03-02T17:40:10;19.35;;;10.55;;
12745;SDS011;6437;53.686;10.030;2023-03-02T17:43:13;25.70;;;11.43;;
12745;SDS011;6437;53.686;10.030;2023-03-02T17:46:15;20.00;;;10.95;;
12745;SDS011;6437;53.686;10.030;2023-03-02T17:49:20;20.73;;;10.63;;
12745;SDS011;6437;53.686;10.030;2023-03-02T17:52:22;25.42;;;10.68;;
12745;SDS011;6437;53.686;10.030;2023-03-02T17:55:24;22.80;;;10.10;;
12745;SDS011;6437;53.686;10.030;2023-03-02T17:58:26;18.70;;;9.95;;
12745;SDS011;6437;53.686;10.030;2023-03-02T18:01:28;23.17;;;11.75;;
12745;SDS011;6437;53.686;10.030;2023-03-02T18:04:31;20.02;;;10.73;;
12745;SDS011;6437;53.686;10.030;2023-03-02T18:07:33;29.50;;;11.25;;
12745;SDS011;6437;53.686;10.030;2023-03-02T18:10:35;25.83;;;12.82;;
12745;SDS011;6437;53.686;10.030;2023-03-02T18:13:37;21.05;;;10.70;;
12745;SDS011;6437;53.686;10.030;2023-03-02T18:16:39;23.27;;;11.93;;
12745;SDS011;6437;53.686;10.030;2023-03-02T18:19:42;32.25;;;13.57;;